Time;durP1;ratioP1;P1;durP2;ratioP2;P2;SDS_P1;SDS_P2;PMS_P1;PMS_P2;Temp;Humidity;BMP_temperature;BMP_pressure;BME280_temperature;BME280_humidity;BME280_pressure;Samples;Min_cycle;Max_cycle;Signal;HPM_P1;HPM_P2
2023/11/02 00:00:25;;;;;;;3.90;0.95;;;;;;;;;;701348;28;1317;-63
2023/11/02 00:00:46;;;;;;;3.40;0.93;;;;;;;;;;700697;28;4523;-65
2023/11/02 00:01:09;;;;;;;2.30;0.90;;;;;;;;;;701651;28;1428;-63
2023/11/02 00:01:35;;;;;;;2.83;0.95;;;;;;;;;;704806;27;1348;-63
2023/11/02 00:01:55;;;;;;;1.90;0.90;;;;;;;;;;701233;28;2298;-63
2023/11/02 00:02:36;;;;;;;3.80;1.10;;;;;;;;;;703005;28;1322;-64
2023/11/02 00:02:56;;;;;;;2.53;0.85;;;;;;;;;;700500;28;2379;-64
2023/11/02 00:03:21;;;;;;;3.10;1.00;;;;;;;;;;700339;28;1226;-63
2023/11/02 00:03:42;;;;;;;2.45;0.90;;;;;;;;;;700967;28;4469;-63
2023/11/02 00:04:02;;;;;;;4.00;1.20;;;;;;;;;;698096;28;1619;-63
2023/11/02 00:04:23;;;;;;;3.58;1.20;;;;;;;;;;701033;28;1393;-63
2023/11/02 00:04:44;;;;;;;2.83;1.05;;;;;;;;;;701082;28;1221;-64
2023/11/02 00:05:06;;;;;;;2.72;1.00;;;;;;;;;;699824;28;2010;-64
2023/11/02 00:05:58;;;;;;;2.45;1.10;;;;;;;;;;703222;28;1475;-64
2023/11/02 00:06:23;;;;;;;2.80;0.90;;;;;;;;;;695934;28;1452;-64
2023/11/02 00:06:46;;;;;;;2.95;1.00;;;;;;;;;;695892;28;4352;-63
2023/11/02 00:07:09;;;;;;;2.40;0.98;;;;;;;;;;696859;28;1555;-64
2023/11/02 00:07:30;;;;;;;2.45;1.40;;;;;;;;;;701878;27;1413;-64
2023/11/02 00:07:52;;;;;;;3.95;1.10;;;;;;;;;;704140;27;3492;-62
2023/11/02 00:08:13;;;;;;;3.70;1.08;;;;;;;;;;704809;27;1432;-63
2023/11/02 00:08:35;;;;;;;3.80;1.10;;;;;;;;;;705562;27;1479;-64
2023/11/02 00:09:05;;;;;;;2.90;1.00;;;;;;;;;;704868;27;2342;-64
2023/11/02 00:09:26;;;;;;;3.67;0.98;;;;;;;;;;704636;27;1404;-64
2023/11/02 00:09:48;;;;;;;2.40;0.80;;;;;;;;;;698343;28;4341;-66
2023/11/02 00:10:09;;;;;;;3.08;0.95;;;;;;;;;;700239;28;1404;-64
2023/11/02 00:10:29;;;;;;;4.60;1.10;;;;;;;;;;698572;28;1349;-64
2023/11/02 00:10:50;;;;;;;3.55;1.10;;;;;;;;;;698688;28;1412;-64
2023/11/02 00:11:30;;;;;;;3.17;1.03;;;;;;;;;;699902;28;1416;-64
2023/11/02 00:12:03;;;;;;;2.80;1.10;;;;;;;;;;705159;27;3282;-64
2023/11/02 00:12:28;;;;;;;3.47;1.40;;;;;;;;;;701958;28;1490;-64
2023/11/02 00:12:48;;;;;;;2.85;0.90;;;;;;;;;;699824;28;4324;-63
2023/11/02 00:13:17;;;;;;;3.60;1.00;;;;;;;;;;703848;28;1511;-63
2023/11/02 00:13:38;;;;;;;3.88;1.00;;;;;;;;;;700481;28;1579;-63
2023/11/02 00:13:58;;;;;;;4.15;0.95;;;;;;;;;;698670;28;2489;-64
2023/11/02 00:14:19;;;;;;;3.57;1.30;;;;;;;;;;702390;28;1658;-65
2023/11/02 00:14:45;;;;;;;2.80;1.30;;;;;;;;;;703185;28;1604;-63
2023/11/02 00:15:07;;;;;;;2.78;0.95;;;;;;;;;;702311;28;1769;-63
2023/11/02 00:15:27;;;;;;;3.58;1.30;;;;;;;;;;705141;27;1480;-65
2023/11/02 00:15:47;;;;;;;3.07;1.20;;;;;;;;;;703815;27;4445;-64
2023/11/02 00:16:08;;;;;;;2.55;0.85;;;;;;;;;;706164;27;1357;-63
2023/11/02 00:16:28;;;;;;;2.97;1.00;;;;;;;;;;706440;27;1408;-63
2023/11/02 00:16:49;;;;;;;2.80;0.90;;;;;;;;;;703628;27;2211;-63
2023/11/02 00:17:28;;;;;;;3.42;1.00;;;;;;;;;;706405;27;1450;-64
2023/11/02 00:17:49;;;;;;;2.60;1.10;;;;;;;;;;705412;27;2398;-64
2023/11/02 00:18:09;;;;;;;4.40;1.23;;;;;;;;;;702399;28;1436;-64
2023/11/02 00:18:31;;;;;;;3.30;1.00;;;;;;;;;;702168;28;1377;-63
2023/11/02 00:18:51;;;;;;;2.80;1.10;;;;;;;;;;699734;28;4363;-62
2023/11/02 00:19:24;;;;;;;3.45;1.08;;;;;;;;;;703547;28;1362;-64
2023/11/02 00:19:44;;;;;;;3.38;1.10;;;;;;;;;;703215;28;1554;-65
2023/11/02 00:20:07;;;;;;;1.83;0.90;;;;;;;;;;703108;27;3370;-63
2023/11/02 00:20:32;;;;;;;4.95;1.00;;;;;;;;;;705534;27;1463;-62
2023/11/02 00:20:54;;;;;;;3.17;0.90;;;;;;;;;;703844;27;1380;-62
2023/11/02 00:21:18;;;;;;;2.83;0.90;;;;;;;;;;704876;27;1905;-63
2023/11/02 00:21:39;;;;;;;3.33;1.02;;;;;;;;;;705649;27;1527;-63
2023/11/02 00:22:09;;;;;;;3.40;1.00;;;;;;;;;;702066;27;4399;-61
2023/11/02 00:22:30;;;;;;;2.55;0.90;;;;;;;;;;705383;27;1230;-63
2023/11/02 00:22:50;;;;;;;3.63;1.00;;;;;;;;;;704093;27;2453;-63
2023/11/02 00:23:11;;;;;;;3.93;1.20;;;;;;;;;;704794;27;1393;-63
2023/11/02 00:23:35;;;;;;;3.67;0.98;;;;;;;;;;705945;27;1526;-63
2023/11/02 00:23:56;;;;;;;3.08;1.00;;;;;;;;;;703765;27;1785;-64
2023/11/02 00:24:17;;;;;;;2.43;0.90;;;;;;;;;;705405;27;1500;-62
2023/11/02 00:24:40;;;;;;;2.55;0.98;;;;;;;;;;705578;27;1404;-63
2023/11/02 00:25:01;;;;;;;2.65;1.10;;;;;;;;;;703238;27;4660;-64
2023/11/02 00:25:41;;;;;;;4.43;1.50;;;;;;;;;;706359;27;1396;-64
2023/11/02 00:26:01;;;;;;;2.38;0.90;;;;;;;;;;704780;27;1781;-63
2023/11/02 00:26:21;;;;;;;2.67;0.90;;;;;;;;;;705702;27;1376;-62
2023/11/02 00:26:42;;;;;;;3.15;1.08;;;;;;;;;;703766;28;1467;-63
2023/11/02 00:27:03;;;;;;;1.80;1.10;;;;;;;;;;699212;28;2113;-63
2023/11/02 00:27:23;;;;;;;1.90;0.90;;;;;;;;;;700582;28;1412;-63
2023/11/02 00:27:44;;;;;;;2.40;0.83;;;;;;;;;;699688;28;4236;-63
2023/11/02 00:28:07;;;;;;;3.10;0.90;;;;;;;;;;699695;28;1557;-63
2023/11/02 00:28:28;;;;;;;2.63;0.98;;;;;;;;;;700646;28;1445;-63
2023/11/02 00:28:48;;;;;;;4.80;1.30;;;;;;;;;;700434;28;1763;-64
2023/11/02 00:29:08;;;;;;;4.43;0.80;;;;;;;;;;701675;28;1412;-64
2023/11/02 00:29:30;;;;;;;3.37;1.10;;;;;;;;;;700486;28;1515;-63
2023/11/02 00:29:50;;;;;;;3.22;0.93;;;;;;;;;;696671;28;1934;-63
2023/11/02 00:30:10;;;;;;;2.70;0.90;;;;;;;;;;697637;28;1417;-62
2023/11/02 00:30:31;;;;;;;3.50;1.00;;;;;;;;;;697708;28;1469;-64
2023/11/02 00:30:51;;;;;;;3.50;0.95;;;;;;;;;;694820;28;4330;-64
2023/11/02 00:31:11;;;;;;;2.63;0.80;;;;;;;;;;697951;28;1567;-63
2023/11/02 00:31:32;;;;;;;3.70;0.82;;;;;;;;;;700158;28;1529;-63
2023/11/02 00:31:52;;;;;;;3.50;0.80;;;;;;;;;;698917;28;1956;-63
2023/11/02 00:32:12;;;;;;;2.83;0.80;;;;;;;;;;700497;28;1445;-64
2023/11/02 00:32:33;;;;;;;3.20;1.00;;;;;;;;;;699645;28;1527;-65
2023/11/02 00:32:53;;;;;;;2.43;0.90;;;;;;;;;;699632;28;1797;-63
2023/11/02 00:33:15;;;;;;;2.42;0.80;;;;;;;;;;699564;28;1547;-62
2023/11/02 00:33:35;;;;;;;3.92;1.00;;;;;;;;;;701023;28;1566;-63
2023/11/02 00:33:55;;;;;;;3.92;0.90;;;;;;;;;;702029;28;4389;-65
2023/11/02 00:34:15;;;;;;;3.37;1.00;;;;;;;;;;700689;28;1389;-63
2023/11/02 00:34:39;;;;;;;3.23;0.87;;;;;;;;;;697320;28;1457;-65
2023/11/02 00:34:59;;;;;;;2.75;1.20;;;;;;;;;;697612;28;1970;-63
2023/11/02 00:35:20;;;;;;;2.60;1.10;;;;;;;;;;700457;28;1377;-62
2023/11/02 00:35:59;;;;;;;3.05;0.90;;;;;;;;;;700692;28;1543;-63
2023/11/02 00:36:19;;;;;;;2.90;1.25;;;;;;;;;;700971;28;2234;-64
2023/11/02 00:36:39;;;;;;;3.80;1.00;;;;;;;;;;700054;28;1523;-63
2023/11/02 00:37:00;;;;;;;2.60;0.80;;;;;;;;;;698723;28;4511;-65
2023/11/02 00:37:21;;;;;;;3.07;1.00;;;;;;;;;;701629;28;1412;-64
2023/11/02 00:37:42;;;;;;;4.20;1.00;;;;;;;;;;698306;28;1164;-64
2023/11/02 00:38:03;;;;;;;3.10;0.90;;;;;;;;;;699476;28;1708;-63
2023/11/02 00:38:27;;;;;;;3.03;1.02;;;;;;;;;;702599;28;1521;-64
2023/11/02 00:38:47;;;;;;;2.40;1.10;;;;;;;;;;701750;28;5570;-62
2023/11/02 00:39:07;;;;;;;2.07;0.83;;;;;;;;;;702506;28;1333;-62
2023/11/02 00:39:28;;;;;;;2.13;0.90;;;;;;;;;;702672;27;1419;-62
2023/11/02 00:39:49;;;;;;;3.10;1.00;;;;;;;;;;704081;27;4574;-63
2023/11/02 00:40:10;;;;;;;3.27;0.93;;;;;;;;;;703055;28;1431;-63
2023/11/02 00:40:30;;;;;;;4.53;0.90;;;;;;;;;;700832;28;2070;-63
2023/11/02 00:40:50;;;;;;;4.05;0.95;;;;;;;;;;699426;28;1715;-63
2023/11/02 00:41:11;;;;;;;2.97;1.10;;;;;;;;;;700800;28;1919;-67
2023/11/02 00:41:31;;;;;;;3.10;1.20;;;;;;;;;;700601;28;1507;-63
2023/11/02 00:41:51;;;;;;;2.97;0.93;;;;;;;;;;698997;28;1534;-63
2023/11/02 00:42:13;;;;;;;2.50;0.90;;;;;;;;;;701002;28;1180;-63
2023/11/02 00:42:34;;;;;;;2.25;0.80;;;;;;;;;;703482;28;1385;-65
2023/11/02 00:42:54;;;;;;;2.60;0.88;;;;;;;;;;701519;28;5902;-64
2023/11/02 00:43:15;;;;;;;3.83;0.90;;;;;;;;;;703801;28;1417;-65
2023/11/02 00:43:36;;;;;;;3.08;0.80;;;;;;;;;;703145;28;1488;-64
2023/11/02 00:43:56;;;;;;;2.75;1.02;;;;;;;;;;696934;28;3110;-64
2023/11/02 00:44:17;;;;;;;2.53;1.00;;;;;;;;;;699924;28;1524;-64
2023/11/02 00:44:38;;;;;;;2.40;0.90;;;;;;;;;;699994;28;1579;-63
2023/11/02 00:44:58;;;;;;;2.77;0.80;;;;;;;;;;697883;28;1732;-64
2023/11/02 00:45:18;;;;;;;2.50;1.00;;;;;;;;;;696071;28;1695;-64
2023/11/02 00:45:41;;;;;;;2.65;1.00;;;;;;;;;;694565;28;1430;-63
2023/11/02 00:46:02;;;;;;;2.72;0.90;;;;;;;;;;696081;28;7338;-64
2023/11/02 00:46:22;;;;;;;2.50;1.00;;;;;;;;;;694932;28;1279;-63
2023/11/02 00:46:43;;;;;;;2.17;0.90;;;;;;;;;;694382;28;1552;-63
2023/11/02 00:47:04;;;;;;;2.65;0.80;;;;;;;;;;694395;28;2398;-64
2023/11/02 00:47:26;;;;;;;2.95;0.98;;;;;;;;;;695783;28;1462;-62
2023/11/02 00:47:46;;;;;;;4.03;1.15;;;;;;;;;;698455;28;1251;-63
2023/11/02 00:48:13;;;;;;;3.63;1.00;;;;;;;;;;698494;28;1290;-64
2023/11/02 00:48:34;;;;;;;3.67;0.90;;;;;;;;;;700318;28;1472;-64
2023/11/02 00:48:54;;;;;;;4.20;1.10;;;;;;;;;;699207;28;4323;-63
2023/11/02 00:49:22;;;;;;;2.78;1.00;;;;;;;;;;701888;28;1403;-64
2023/11/02 00:49:42;;;;;;;3.72;0.98;;;;;;;;;;702938;28;1294;-64
2023/11/02 00:50:03;;;;;;;3.33;1.07;;;;;;;;;;701186;28;2061;-64
2023/11/02 00:50:35;;;;;;;2.70;0.93;;;;;;;;;;702379;28;1527;-63
2023/11/02 00:51:24;;;;;;;2.53;0.90;;;;;;;;;;701177;28;2126;-63
2023/11/02 00:51:47;;;;;;;3.10;0.80;;;;;;;;;;701720;28;4462;-63
2023/11/02 00:52:08;;;;;;;2.00;0.90;;;;;;;;;;700483;28;1856;-63
2023/11/02 00:52:28;;;;;;;2.47;0.90;;;;;;;;;;701582;28;1396;-62
2023/11/02 00:52:49;;;;;;;3.10;0.90;;;;;;;;;;698753;28;1465;-65
2023/11/02 00:53:09;;;;;;;3.30;0.90;;;;;;;;;;696859;28;1227;-63
2023/11/02 00:53:29;;;;;;;4.13;1.00;;;;;;;;;;694847;28;1402;-63
2023/11/02 00:53:56;;;;;;;3.22;1.00;;;;;;;;;;691447;28;2909;-63
2023/11/02 00:54:36;;;;;;;2.78;0.85;;;;;;;;;;689084;28;2099;-64
2023/11/02 00:54:58;;;;;;;3.47;1.00;;;;;;;;;;691493;28;4479;-63
2023/11/02 00:55:31;;;;;;;3.65;1.00;;;;;;;;;;696602;28;1495;-63
2023/11/02 00:55:52;;;;;;;2.30;0.82;;;;;;;;;;695478;28;1480;-64
2023/11/02 00:56:13;;;;;;;2.27;0.90;;;;;;;;;;695869;28;1460;-62
2023/11/02 00:56:35;;;;;;;3.28;0.90;;;;;;;;;;697435;28;1360;-63
2023/11/02 00:56:55;;;;;;;3.60;1.00;;;;;;;;;;693288;28;1935;-63
2023/11/02 00:57:20;;;;;;;2.35;1.00;;;;;;;;;;693730;28;1604;-63
2023/11/02 00:57:41;;;;;;;2.67;0.95;;;;;;;;;;692022;28;4386;-64
2023/11/02 00:58:08;;;;;;;2.17;0.90;;;;;;;;;;696429;28;1993;-64
2023/11/02 00:58:29;;;;;;;2.53;0.93;;;;;;;;;;700666;28;1313;-64
2023/11/02 00:58:50;;;;;;;3.53;1.20;;;;;;;;;;700618;28;1417;-63
2023/11/02 00:59:17;;;;;;;5.22;1.50;;;;;;;;;;702033;28;1392;-63
2023/11/02 00:59:40;;;;;;;4.57;1.30;;;;;;;;;;701258;28;1332;-63
2023/11/02 01:00:00;;;;;;;4.18;1.00;;;;;;;;;;696427;28;2271;-63
2023/11/02 01:00:41;;;;;;;3.70;0.90;;;;;;;;;;695755;28;1809;-63
2023/11/02 01:01:07;;;;;;;2.78;0.90;;;;;;;;;;695752;28;6123;-63
2023/11/02 01:01:28;;;;;;;2.72;0.90;;;;;;;;;;699184;28;1902;-62
2023/11/02 01:01:48;;;;;;;3.65;0.90;;;;;;;;;;699333;28;1475;-63
2023/11/02 01:02:09;;;;;;;3.47;0.90;;;;;;;;;;700292;28;2389;-62
2023/11/02 01:02:38;;;;;;;3.75;1.00;;;;;;;;;;703345;28;946;-63
2023/11/02 01:02:58;;;;;;;3.58;1.33;;;;;;;;;;700420;28;1900;-63
2023/11/02 01:03:22;;;;;;;3.03;0.80;;;;;;;;;;699537;28;1551;-64
2023/11/02 01:03:45;;;;;;;3.33;1.00;;;;;;;;;;697588;28;4599;-64
2023/11/02 01:04:26;;;;;;;2.70;1.00;;;;;;;;;;697840;28;2169;-64
2023/11/02 01:04:47;;;;;;;3.40;0.95;;;;;;;;;;696799;28;1846;-64
2023/11/02 01:05:20;;;;;;;4.10;1.00;;;;;;;;;;696185;28;2421;-64
2023/11/02 01:05:41;;;;;;;3.53;0.95;;;;;;;;;;700804;28;1733;-61
2023/11/02 01:06:01;;;;;;;3.57;0.93;;;;;;;;;;700670;28;2410;-63
2023/11/02 01:06:23;;;;;;;2.87;0.90;;;;;;;;;;702847;28;1483;-63
2023/11/02 01:06:43;;;;;;;3.67;1.00;;;;;;;;;;703036;27;4405;-64
2023/11/02 01:07:03;;;;;;;5.40;1.00;;;;;;;;;;701557;28;2335;-65
2023/11/02 01:07:24;;;;;;;3.72;1.00;;;;;;;;;;699132;28;1472;-64
2023/11/02 01:07:45;;;;;;;2.10;0.97;;;;;;;;;;697733;28;1495;-63
2023/11/02 01:08:06;;;;;;;3.35;0.90;;;;;;;;;;697563;28;2664;-64
2023/11/02 01:08:31;;;;;;;3.40;1.00;;;;;;;;;;700865;28;1269;-65
2023/11/02 01:08:53;;;;;;;2.47;0.90;;;;;;;;;;699156;28;2468;-63
2023/11/02 01:09:36;;;;;;;3.05;0.90;;;;;;;;;;701425;28;1440;-64
2023/11/02 01:09:59;;;;;;;3.50;0.90;;;;;;;;;;701279;28;4470;-64
2023/11/02 01:10:21;;;;;;;3.35;0.98;;;;;;;;;;697671;28;1599;-64
2023/11/02 01:10:41;;;;;;;3.00;1.00;;;;;;;;;;698636;28;1436;-64
2023/11/02 01:11:02;;;;;;;2.70;0.90;;;;;;;;;;695711;28;2302;-63
2023/11/02 01:11:25;;;;;;;2.33;0.90;;;;;;;;;;695142;28;1493;-63
2023/11/02 01:11:46;;;;;;;3.25;0.90;;;;;;;;;;691814;28;1516;-63
2023/11/02 01:12:06;;;;;;;3.25;1.00;;;;;;;;;;694473;28;1683;-65
2023/11/02 01:12:35;;;;;;;3.07;0.80;;;;;;;;;;698546;28;1244;-64
2023/11/02 01:12:56;;;;;;;2.20;0.80;;;;;;;;;;695572;28;4561;-63
2023/11/02 01:13:17;;;;;;;2.65;0.90;;;;;;;;;;699480;28;1579;-63
2023/11/02 01:13:39;;;;;;;3.00;0.90;;;;;;;;;;699037;28;1381;-63
2023/11/02 01:14:06;;;;;;;2.97;1.00;;;;;;;;;;699331;28;2658;-62
2023/11/02 01:14:43;;;;;;;2.50;1.00;;;;;;;;;;699354;28;1452;-65
2023/11/02 01:15:08;;;;;;;3.25;1.00;;;;;;;;;;701773;27;2578;-65
2023/11/02 01:15:44;;;;;;;2.50;0.90;;;;;;;;;;705028;27;1376;-63
2023/11/02 01:16:04;;;;;;;3.92;0.88;;;;;;;;;;700694;28;4823;-65
2023/11/02 01:16:26;;;;;;;2.90;0.90;;;;;;;;;;700020;28;3824;-63
2023/11/02 01:16:46;;;;;;;3.20;1.00;;;;;;;;;;697798;28;1513;-63
2023/11/02 01:17:07;;;;;;;2.88;1.00;;;;;;;;;;696415;28;2707;-63
2023/11/02 01:17:30;;;;;;;3.88;1.00;;;;;;;;;;698113;28;1446;-63
2023/11/02 01:17:50;;;;;;;3.55;0.95;;;;;;;;;;695542;28;2096;-62
2023/11/02 01:18:11;;;;;;;3.60;1.10;;;;;;;;;;697205;28;1738;-62
2023/11/02 01:18:32;;;;;;;3.50;1.10;;;;;;;;;;700093;28;1310;-64
2023/11/02 01:18:55;;;;;;;3.75;1.00;;;;;;;;;;697934;28;5098;-62
2023/11/02 01:19:33;;;;;;;2.80;1.00;;;;;;;;;;697739;28;1258;-64
2023/11/02 01:19:55;;;;;;;2.60;1.02;;;;;;;;;;695673;28;2446;-63
2023/11/02 01:20:36;;;;;;;3.40;1.00;;;;;;;;;;700479;28;1527;-62
2023/11/02 01:21:00;;;;;;;3.47;1.02;;;;;;;;;;701864;28;2146;-61
2023/11/02 01:21:21;;;;;;;4.47;0.98;;;;;;;;;;704148;27;1905;-61
2023/11/02 01:21:41;;;;;;;2.38;0.90;;;;;;;;;;704726;27;4316;-62
2023/11/02 01:22:02;;;;;;;3.15;1.10;;;;;;;;;;703473;27;1776;-62
2023/11/02 01:22:43;;;;;;;4.38;1.20;;;;;;;;;;704486;27;1257;-61
2023/11/02 01:23:05;;;;;;;3.22;0.90;;;;;;;;;;694259;28;1752;-62
2023/11/02 01:23:27;;;;;;;4.80;1.13;;;;;;;;;;696283;28;1333;-62
2023/11/02 01:23:53;;;;;;;4.22;1.30;;;;;;;;;;697321;28;1362;-61
2023/11/02 01:24:21;;;;;;;3.47;0.90;;;;;;;;;;701363;28;1471;-62
2023/11/02 01:24:42;;;;;;;3.20;1.20;;;;;;;;;;702263;28;4522;-64
2023/11/02 01:25:07;;;;;;;3.47;1.00;;;;;;;;;;699143;28;1882;-62
2023/11/02 01:25:28;;;;;;;3.83;1.10;;;;;;;;;;701996;28;1377;-65
2023/11/02 01:25:49;;;;;;;3.58;1.00;;;;;;;;;;702527;28;1448;-63
2023/11/02 01:26:28;;;;;;;2.70;1.00;;;;;;;;;;701977;28;1491;-63
2023/11/02 01:26:57;;;;;;;3.45;0.95;;;;;;;;;;703323;27;1318;-62
2023/11/02 01:27:23;;;;;;;3.03;0.90;;;;;;;;;;705988;27;871;-64
2023/11/02 01:27:44;;;;;;;1.85;0.85;;;;;;;;;;701847;28;4708;-64
2023/11/02 01:28:07;;;;;;;2.67;1.05;;;;;;;;;;697728;28;2391;-64
2023/11/02 01:28:54;;;;;;;3.13;0.93;;;;;;;;;;698510;28;1440;-64
2023/11/02 01:29:14;;;;;;;3.83;0.90;;;;;;;;;;696666;28;2134;-60
2023/11/02 01:29:35;;;;;;;4.63;1.00;;;;;;;;;;698307;28;1676;-63
2023/11/02 01:29:55;;;;;;;3.35;1.00;;;;;;;;;;700783;28;1763;-63
2023/11/02 01:30:18;;;;;;;2.67;1.10;;;;;;;;;;697758;28;1445;-64
2023/11/02 01:30:38;;;;;;;2.65;0.93;;;;;;;;;;698866;28;1373;-62
2023/11/02 01:31:13;;;;;;;3.37;0.90;;;;;;;;;;697503;28;4307;-62
2023/11/02 01:31:35;;;;;;;3.58;1.00;;;;;;;;;;701770;28;1409;-62
2023/11/02 01:31:55;;;;;;;2.90;0.80;;;;;;;;;;699098;28;1922;-62
2023/11/02 01:32:15;;;;;;;2.60;0.90;;;;;;;;;;703471;28;3212;-63
2023/11/02 01:32:36;;;;;;;2.53;1.10;;;;;;;;;;702037;28;1476;-61
2023/11/02 01:32:56;;;;;;;2.63;0.95;;;;;;;;;;699105;28;1479;-64
2023/11/02 01:33:38;;;;;;;2.90;1.10;;;;;;;;;;697924;28;1576;-64
2023/11/02 01:33:59;;;;;;;4.43;1.00;;;;;;;;;;698826;28;4306;-62
2023/11/02 01:34:20;;;;;;;4.25;1.20;;;;;;;;;;700663;28;1544;-63
2023/11/02 01:34:41;;;;;;;3.78;1.10;;;;;;;;;;701006;28;1531;-61
2023/11/02 01:35:07;;;;;;;3.23;1.10;;;;;;;;;;699642;28;1741;-62
2023/11/02 01:35:41;;;;;;;2.22;0.90;;;;;;;;;;702268;28;1393;-65
2023/11/02 01:36:02;;;;;;;2.45;1.08;;;;;;;;;;700859;28;2254;-64
2023/11/02 01:36:27;;;;;;;2.80;1.07;;;;;;;;;;699426;28;1393;-66
2023/11/02 01:36:47;;;;;;;3.28;1.00;;;;;;;;;;700104;28;4472;-63
2023/11/02 01:37:08;;;;;;;8.93;1.43;;;;;;;;;;700501;28;1485;-65
2023/11/02 01:37:28;;;;;;;3.17;0.98;;;;;;;;;;699315;28;1440;-64
2023/11/02 01:37:49;;;;;;;2.72;0.82;;;;;;;;;;699094;28;1211;-63
2023/11/02 01:38:13;;;;;;;2.70;0.90;;;;;;;;;;699344;28;1470;-63
2023/11/02 01:38:34;;;;;;;3.83;0.90;;;;;;;;;;699982;28;1378;-65
2023/11/02 01:38:58;;;;;;;4.60;1.00;;;;;;;;;;697301;28;5508;-66
2023/11/02 01:39:21;;;;;;;2.92;0.88;;;;;;;;;;698732;28;1551;-63
2023/11/02 01:39:41;;;;;;;3.15;0.90;;;;;;;;;;699147;28;4517;-64
2023/11/02 01:40:08;;;;;;;3.33;0.90;;;;;;;;;;696156;28;1769;-66
2023/11/02 01:40:35;;;;;;;3.40;0.98;;;;;;;;;;696607;28;903;-65
2023/11/02 01:41:05;;;;;;;2.88;0.90;;;;;;;;;;695122;28;2621;-62
2023/11/02 01:41:51;;;;;;;3.10;1.10;;;;;;;;;;700610;28;1975;-62
2023/11/02 01:42:16;;;;;;;2.85;1.10;;;;;;;;;;693200;28;2445;-64
2023/11/02 01:42:42;;;;;;;4.07;1.05;;;;;;;;;;690487;28;1625;-62
2023/11/02 01:43:05;;;;;;;3.05;1.10;;;;;;;;;;698066;28;5870;-61
2023/11/02 01:43:33;;;;;;;3.38;1.10;;;;;;;;;;702615;28;1393;-62
2023/11/02 01:44:00;;;;;;;3.08;1.00;;;;;;;;;;700956;28;1497;-64
2023/11/02 01:44:34;;;;;;;3.10;1.25;;;;;;;;;;703793;28;1463;-61
2023/11/02 01:44:58;;;;;;;4.07;1.08;;;;;;;;;;703411;27;1404;-63
2023/11/02 01:45:22;;;;;;;2.72;1.20;;;;;;;;;;703217;28;1578;-62
2023/11/02 01:45:43;;;;;;;3.45;1.30;;;;;;;;;;702050;28;4788;-62
2023/11/02 01:46:04;;;;;;;3.65;1.10;;;;;;;;;;701597;28;1738;-63
2023/11/02 01:46:34;;;;;;;3.35;1.10;;;;;;;;;;699666;28;1249;-64
2023/11/02 01:47:24;;;;;;;2.95;1.10;;;;;;;;;;695348;28;1421;-64
2023/11/02 01:47:53;;;;;;;4.13;1.17;;;;;;;;;;694505;28;1497;-62
2023/11/02 01:48:21;;;;;;;2.83;1.20;;;;;;;;;;698002;28;1813;-65
2023/11/02 01:48:47;;;;;;;4.57;1.00;;;;;;;;;;702785;28;4335;-63
2023/11/02 01:49:15;;;;;;;4.82;1.20;;;;;;;;;;697800;28;1291;-64
2023/11/02 01:49:47;;;;;;;2.75;1.10;;;;;;;;;;696430;28;1472;-64
2023/11/02 01:50:14;;;;;;;2.10;1.00;;;;;;;;;;695192;28;1894;-61
2023/11/02 01:50:39;;;;;;;3.45;1.10;;;;;;;;;;696903;28;1452;-62
2023/11/02 01:51:05;;;;;;;3.75;1.10;;;;;;;;;;694424;28;1386;-63
2023/11/02 01:51:38;;;;;;;2.97;1.05;;;;;;;;;;698063;28;1267;-62
2023/11/02 01:52:10;;;;;;;3.78;1.20;;;;;;;;;;694019;28;4364;-62
2023/11/02 01:52:52;;;;;;;3.80;1.20;;;;;;;;;;693483;28;1414;-62
2023/11/02 01:53:34;;;;;;;2.05;1.05;;;;;;;;;;700647;28;1309;-62
2023/11/02 01:53:59;;;;;;;3.33;1.10;;;;;;;;;;702865;27;1550;-66
2023/11/02 01:54:38;;;;;;;2.28;1.02;;;;;;;;;;705581;27;1535;-64
2023/11/02 01:55:06;;;;;;;2.92;1.08;;;;;;;;;;702203;27;4485;-63
2023/11/02 01:55:26;;;;;;;4.65;1.20;;;;;;;;;;705198;27;1393;-62
2023/11/02 01:56:04;;;;;;;3.67;1.20;;;;;;;;;;703376;28;1412;-63
2023/11/02 01:56:42;;;;;;;2.10;1.00;;;;;;;;;;703585;28;1478;-64
2023/11/02 01:57:04;;;;;;;2.63;1.13;;;;;;;;;;699181;28;1243;-63
2023/11/02 01:57:25;;;;;;;2.97;1.13;;;;;;;;;;701556;28;832;-64
2023/11/02 01:57:53;;;;;;;2.77;1.10;;;;;;;;;;698808;28;4373;-63
2023/11/02 01:58:14;;;;;;;3.42;1.05;;;;;;;;;;699783;28;1458;-64
2023/11/02 01:58:50;;;;;;;2.72;1.50;;;;;;;;;;700199;28;1649;-65
2023/11/02 01:59:11;;;;;;;4.93;1.40;;;;;;;;;;701157;28;1072;-65
2023/11/02 01:59:47;;;;;;;3.40;1.40;;;;;;;;;;698839;28;1310;-63
2023/11/02 02:00:09;;;;;;;2.65;1.20;;;;;;;;;;701226;28;1463;-62
2023/11/02 02:00:47;;;;;;;2.72;1.20;;;;;;;;;;702334;28;1451;-64
2023/11/02 02:01:22;;;;;;;3.45;1.27;;;;;;;;;;701659;28;5093;-65
2023/11/02 02:01:52;;;;;;;4.18;1.30;;;;;;;;;;705476;27;932;-65
2023/11/02 02:02:14;;;;;;;3.67;1.30;;;;;;;;;;698690;28;1312;-64
2023/11/02 02:02:41;;;;;;;3.85;1.50;;;;;;;;;;700282;28;1440;-64
2023/11/02 02:03:11;;;;;;;2.92;1.23;;;;;;;;;;699050;28;1029;-64
2023/11/02 02:03:47;;;;;;;4.25;1.38;;;;;;;;;;700160;28;793;-63
2023/11/02 02:04:16;;;;;;;3.40;1.30;;;;;;;;;;699419;28;5734;-66
2023/11/02 02:04:40;;;;;;;3.13;1.25;;;;;;;;;;701522;28;1519;-64
2023/11/02 02:05:11;;;;;;;2.50;1.20;;;;;;;;;;700237;28;1041;-64
2023/11/02 02:05:36;;;;;;;3.15;1.40;;;;;;;;;;701967;28;1456;-64
2023/11/02 02:06:19;;;;;;;5.32;1.50;;;;;;;;;;701526;28;1373;-64
2023/11/02 02:06:46;;;;;;;2.40;1.13;;;;;;;;;;698558;28;1499;-63
2023/11/02 02:07:18;;;;;;;3.22;1.45;;;;;;;;;;692395;28;6716;-62
2023/11/02 02:07:46;;;;;;;3.60;1.38;;;;;;;;;;696305;28;1362;-63
2023/11/02 02:08:16;;;;;;;4.15;1.30;;;;;;;;;;698444;28;1278;-66
2023/11/02 02:08:49;;;;;;;3.60;1.20;;;;;;;;;;700167;28;852;-63
2023/11/02 02:09:28;;;;;;;3.20;1.40;;;;;;;;;;700288;28;2210;-63
2023/11/02 02:09:58;;;;;;;3.67;1.30;;;;;;;;;;699330;28;4330;-66
2023/11/02 02:10:39;;;;;;;2.65;1.40;;;;;;;;;;700064;28;1536;-62
2023/11/02 02:11:07;;;;;;;3.45;1.50;;;;;;;;;;691158;28;1580;-64
2023/11/02 02:11:27;;;;;;;2.95;1.25;;;;;;;;;;692123;28;1350;-63
2023/11/02 02:11:54;;;;;;;3.40;1.30;;;;;;;;;;691072;28;1443;-63
2023/11/02 02:12:17;;;;;;;3.28;1.20;;;;;;;;;;698433;28;1261;-63
2023/11/02 02:12:56;;;;;;;3.55;1.27;;;;;;;;;;696539;28;3332;-62
2023/11/02 02:13:16;;;;;;;4.22;1.40;;;;;;;;;;696366;28;4858;-65
2023/11/02 02:13:45;;;;;;;3.33;1.30;;;;;;;;;;697191;28;1480;-62
2023/11/02 02:14:18;;;;;;;2.95;1.40;;;;;;;;;;699203;28;1926;-62
2023/11/02 02:14:51;;;;;;;2.92;1.30;;;;;;;;;;700866;28;1372;-64
2023/11/02 02:15:15;;;;;;;4.28;1.52;;;;;;;;;;700210;28;2834;-63
2023/11/02 02:15:51;;;;;;;3.53;1.20;;;;;;;;;;701037;28;1039;-64
2023/11/02 02:16:17;;;;;;;3.20;1.20;;;;;;;;;;696527;28;6575;-63
2023/11/02 02:16:42;;;;;;;3.55;1.30;;;;;;;;;;701285;28;1322;-64
2023/11/02 02:17:23;;;;;;;3.15;1.20;;;;;;;;;;698249;28;2144;-64
2023/11/02 02:18:07;;;;;;;1.98;1.20;;;;;;;;;;695087;28;2149;-62
2023/11/02 02:18:35;;;;;;;2.83;1.35;;;;;;;;;;688392;28;1375;-66
2023/11/02 02:19:21;;;;;;;3.25;1.50;;;;;;;;;;695257;28;4372;-65
2023/11/02 02:19:54;;;;;;;3.08;1.50;;;;;;;;;;692380;28;1544;-64
2023/11/02 02:20:21;;;;;;;3.58;1.40;;;;;;;;;;690204;28;1455;-63
2023/11/02 02:20:45;;;;;;;3.15;1.38;;;;;;;;;;703011;28;1595;-64
2023/11/02 02:21:09;;;;;;;3.47;1.50;;;;;;;;;;700515;28;958;-63
2023/11/02 02:21:33;;;;;;;2.45;1.20;;;;;;;;;;700241;28;1963;-64
2023/11/02 02:22:01;;;;;;;3.75;1.50;;;;;;;;;;698931;28;4402;-63
2023/11/02 02:22:25;;;;;;;2.85;1.40;;;;;;;;;;698959;28;2056;-62
2023/11/02 02:22:51;;;;;;;3.17;1.30;;;;;;;;;;699822;28;1440;-64
2023/11/02 02:23:23;;;;;;;3.85;1.58;;;;;;;;;;695887;28;1353;-63
2023/11/02 02:23:47;;;;;;;3.15;1.33;;;;;;;;;;697186;28;2352;-63
2023/11/02 02:24:11;;;;;;;5.50;1.42;;;;;;;;;;694227;28;1481;-64
2023/11/02 02:24:50;;;;;;;4.95;1.50;;;;;;;;;;696459;28;1492;-66
2023/11/02 02:25:12;;;;;;;5.78;1.40;;;;;;;;;;695292;28;4995;-63
2023/11/02 02:25:40;;;;;;;3.45;1.40;;;;;;;;;;698643;28;1531;-65
2023/11/02 02:26:17;;;;;;;4.25;1.30;;;;;;;;;;697421;28;1409;-63
2023/11/02 02:26:43;;;;;;;3.30;1.40;;;;;;;;;;700002;28;1568;-63
2023/11/02 02:27:05;;;;;;;5.05;1.42;;;;;;;;;;697629;28;1385;-64
2023/11/02 02:27:31;;;;;;;4.28;1.48;;;;;;;;;;697690;28;1357;-64
2023/11/02 02:27:58;;;;;;;4.65;1.60;;;;;;;;;;695492;28;5161;-64
2023/11/02 02:28:29;;;;;;;3.65;1.55;;;;;;;;;;697601;28;3510;-63
2023/11/02 02:29:08;;;;;;;4.60;1.50;;;;;;;;;;695106;28;1331;-63
2023/11/02 02:30:01;;;;;;;5.10;1.45;;;;;;;;;;696640;28;1551;-63
2023/11/02 02:30:40;;;;;;;3.70;1.40;;;;;;;;;;687330;28;825;-63
2023/11/02 02:31:12;;;;;;;3.72;1.60;;;;;;;;;;687237;28;4391;-63
2023/11/02 02:31:35;;;;;;;2.60;1.33;;;;;;;;;;695283;28;1479;-65
2023/11/02 02:31:58;;;;;;;3.17;1.30;;;;;;;;;;698352;28;1523;-64
2023/11/02 02:32:37;;;;;;;4.93;1.60;;;;;;;;;;699995;28;1393;-66
2023/11/02 02:33:03;;;;;;;3.70;1.50;;;;;;;;;;700857;28;1511;-66
2023/11/02 02:33:23;;;;;;;3.33;1.35;;;;;;;;;;700752;28;2273;-63
2023/11/02 02:33:50;;;;;;;4.27;1.50;;;;;;;;;;702324;28;4335;-62
2023/11/02 02:34:22;;;;;;;4.25;1.63;;;;;;;;;;700914;28;1225;-63
2023/11/02 02:34:42;;;;;;;3.15;1.42;;;;;;;;;;699523;28;1523;-63
2023/11/02 02:35:02;;;;;;;3.30;1.45;;;;;;;;;;697017;28;1785;-63
2023/11/02 02:35:36;;;;;;;3.73;1.70;;;;;;;;;;700891;28;1361;-63
2023/11/02 02:36:05;;;;;;;4.05;1.58;;;;;;;;;;702226;28;1503;-63
2023/11/02 02:36:45;;;;;;;4.03;1.50;;;;;;;;;;702773;28;1445;-64
2023/11/02 02:37:08;;;;;;;3.83;1.35;;;;;;;;;;699932;28;6483;-63
2023/11/02 02:37:33;;;;;;;4.63;1.50;;;;;;;;;;702807;28;1436;-63